Kezdőlap
METAR-TAF:

METAR-TAF

Repülőterek :

Hagåtña, Guam, Amerikai Egyesült Államok

földrajzi szélesség: 13-29N, földrajzi hosszúság: 144-48E, magasság: 91 m

Jelenlegi meteorológiai megfigyelések

A jelentés 54 perccel ezelõtt készült, 10:54 UTC
Nyugat-délnyugati szél 3 kt
Hőmérséklet 26°C
Páratartalom 100%
Légköri nyomás 1012 hPa
Látótávolság: 16.1 km
Derült ég

METAR: PGUM 231054Z 24003KT 10SM CLR 26/26 A2988 RMK AO2 SLP110 T02610256

Idő: 21:48 (11:48 UTC)

Előrejelzés

A jelentés 24 perccel ezelõtt készült, 11:24 UTC
Az előrejelzés 23-én 12 óra UTC és 24-én 18 óra UTC között érvényes
Különbözõ irányokból fújó szél 5 kt
Látótávolság: 10 km
Szórványos felhőzet 2000 lábon
Záporok a közelben

TAF: PGUM 231124Z 2312/2418 VRB05KT P6SM VCSH SCT020

Meteorológiai megfigyelések és előrejelzések több, mint 4000 repülőtéren (METAR és TAF jelentéseket).

A térképen piros és sárga pontok jelzik az elérhető meteorológiai állomásokat.

Mozgassa az egeret a pont fölött, hogy megjelenjen az állomás neve.

Azután kattintson az időjárási megfigyelések és előrejelzések megtekintéséhez.

A térkép megváltoztatása: kattintson a fekete keresztel jelölt zöld gombra ráközelítéshez, a vonallal jelölt zöld gombra távolításhoz, vagy a zöld nyilakra a szomszédos térképek eléréséhez.


METAR-TAF: